Kenneth Carl — WDF8246 — position and weather

sailwx.info

Track history (hours):
 
Tides and Currents Weather Stations Pressure Air Temp Water Temp Dewpoint Dewpoint Depression Visibility Wind Speed Wind Dir Waves Ship Positions

Kenneth Carl

Owner: So. Cal. Ship Services, Inc., San Pedro, CA. More information available from US FCC via Universal Licensing System and Coast Guard Vessel Documentation Center.

Last reported at 2017-Mar-28 13:10 UTC. Time now 2017-Mar-28 13:51 UTC.
Position N 33°44' W 118°16'.

Length 31 m; draft 3 m.

Type: Ship. MMSI: 367492920.

Date/timePositionNaut miles runAvg speedWind from/ knotsBaromVisibWave heightAir tempDewpointWater temp
2017-Mar-28 13:10N 33°44' W 118°16'0 0.0
2017-Mar-28 12:22N 33°44' W 118°16'0 0.0
2017-Mar-28 11:28N 33°44' W 118°16'0 0.0
2017-Mar-28 09:22N 33°44' W 118°16'0 0.0
2017-Mar-28 08:28N 33°44' W 118°16'0 0.0
2017-Mar-28 07:22N 33°44' W 118°16'0 0.0
2017-Mar-28 06:04N 33°44' W 118°16'0 0.0
2017-Mar-28 05:28N 33°44' W 118°16'0 0.0
2017-Mar-28 04:28N 33°44' W 118°16'0 0.0
2017-Mar-28 03:31N 33°44' W 118°16'0 0.0
2017-Mar-28 02:31N 33°44' W 118°16'0 0.0
2017-Mar-28 01:31N 33°44' W 118°16'0 0.0
2017-Mar-28 00:22N 33°44' W 118°16'0 0.0
2017-Mar-27 23:33N 33°44' W 118°16'7 6.7
2017-Mar-27 22:32N 33°39' W 118°11'5 4.9
2017-Mar-27 21:33N 33°35' W 118°08'0 0.0
2017-Mar-27 20:33N 33°35' W 118°08'0 0.0
2017-Mar-27 19:32N 33°35' W 118°08'0 0.0
2017-Mar-27 18:33N 33°35' W 118°08'0 0.1
2017-Mar-27 17:33N 33°35' W 118°08'  
2017-Mar-25 02:23N 33°44' W 118°16'0 0.0
2017-Mar-25 01:32N 33°44' W 118°16'0 0.0
2017-Mar-25 00:29N 33°44' W 118°16'0 0.0
2017-Mar-24 23:33N 33°44' W 118°16'9 9.5
2017-Mar-24 22:34N 33°37' W 118°09'2 2.2
2017-Mar-24 21:33N 33°35' W 118°08'0 0.0
2017-Mar-24 20:34N 33°35' W 118°08'0 0.0
2017-Mar-24 19:33N 33°35' W 118°08'1 1.1
2017-Mar-24 18:33N 33°34' W 118°07'0 0.2
2017-Mar-24 17:33N 33°34' W 118°07'0 0.0
2017-Mar-24 16:33N 33°34' W 118°07'3 3.2
2017-Mar-24 15:33N 33°36' W 118°10'10 3.2
2017-Mar-24 12:33N 33°44' W 118°16'0 0.0
2017-Mar-24 10:23N 33°44' W 118°16'0 0.0
2017-Mar-24 00:23N 33°44' W 118°16'0 0.0
2017-Mar-23 21:29N 33°44' W 118°16'0 0.0
2017-Mar-23 20:23N 33°44' W 118°16'4 0.2
2017-Mar-22 22:23N 33°41' W 118°14'8 9.2
2017-Mar-22 21:33N 33°35' W 118°08'0 0.1
2017-Mar-22 20:33N 33°35' W 118°08'1 1.3
2017-Mar-22 19:33N 33°34' W 118°07'5 1.9
2017-Mar-22 17:11N 33°37' W 118°10'8 0.4
2017-Mar-21 22:18N 33°44' W 118°16'0 0.0
2017-Mar-21 21:30N 33°44' W 118°16'0 0.0
2017-Mar-21 20:18N 33°44' W 118°16'0 0.0
2017-Mar-21 19:24N 33°44' W 118°16'0 0.0
2017-Mar-21 11:18N 33°44' W 118°16'7 0.6
2017-Mar-20 23:13N 33°38' W 118°10'4 6.0
2017-Mar-20 22:31N 33°35' W 118°08'0 0.0
2017-Mar-20 21:33N 33°35' W 118°08'0 0.0
2017-Mar-20 20:29N 33°35' W 118°08'0 0.0
2017-Mar-20 19:33N 33°35' W 118°08'1 1.2
2017-Mar-20 18:29N 33°34' W 118°07'13 2.2
2017-Mar-20 12:30N 33°44' W 118°16'0 0.0
2017-Mar-20 08:28N 33°44' W 118°16'0 0.0
2017-Mar-20 06:32N 33°44' W 118°16'0 0.0
2017-Mar-20 05:31N 33°44' W 118°16'0 0.0
2017-Mar-20 04:28N 33°44' W 118°16'0 0.0
2017-Mar-20 03:33N 33°44' W 118°16'0 0.0
2017-Mar-20 02:28N 33°44' W 118°16'0 0.0
2017-Mar-20 01:32N 33°44' W 118°16'0 0.0
2017-Mar-20 00:33N 33°44' W 118°16'0 0.0
2017-Mar-19 23:33N 33°44' W 118°16'0 0.0
2017-Mar-19 22:33N 33°44' W 118°16'0 0.0
2017-Mar-19 21:33N 33°44' W 118°16'0 0.0
2017-Mar-19 20:33N 33°44' W 118°16'0 0.0
2017-Mar-19 19:33N 33°44' W 118°16'0 0.0
2017-Mar-19 18:33N 33°44' W 118°16'0 0.0
2017-Mar-19 17:25N 33°44' W 118°16'0 0.0
2017-Mar-19 16:32N 33°44' W 118°16'0 0.0
2017-Mar-19 15:29N 33°44' W 118°16'0 0.0
2017-Mar-19 14:29N 33°44' W 118°16'0 0.0
2017-Mar-19 13:33N 33°44' W 118°16'0 0.0
2017-Mar-19 12:32N 33°44' W 118°16'0 0.0
2017-Mar-19 11:33N 33°44' W 118°16'0 0.0
2017-Mar-19 10:29N 33°44' W 118°16'0 0.0
2017-Mar-19 09:33N 33°44' W 118°16'0 0.0
2017-Mar-19 08:28N 33°44' W 118°16'0 0.0
2017-Mar-19 07:23N 33°44' W 118°16'0 0.0
2017-Mar-19 06:26N 33°44' W 118°16'0 0.0
2017-Mar-19 04:33N 33°44' W 118°16'0 0.0
2017-Mar-19 03:33N 33°44' W 118°16'0 0.0
2017-Mar-19 02:27N 33°44' W 118°16'0 0.0
2017-Mar-19 01:33N 33°44' W 118°16'0 0.0
2017-Mar-19 00:33N 33°44' W 118°16'0 0.0
2017-Mar-18 23:33N 33°44' W 118°16'0 0.0
2017-Mar-18 22:33N 33°44' W 118°16'0 0.0
2017-Mar-18 21:32N 33°44' W 118°16'0 0.0
2017-Mar-18 20:28N 33°44' W 118°16'0 0.0
2017-Mar-18 19:33N 33°44' W 118°16'0 0.0
2017-Mar-18 18:26N 33°44' W 118°16'0 0.0
2017-Mar-18 17:33N 33°44' W 118°16'0 0.0
2017-Mar-18 16:30N 33°44' W 118°16'0 0.0
2017-Mar-18 15:26N 33°44' W 118°16'0 0.0
2017-Mar-18 14:33N 33°44' W 118°16'0 0.0
2017-Mar-18 13:31N 33°44' W 118°16'  
Track history (hours):
 
Tides and Currents Weather Stations Pressure Air Temp Water Temp Dewpoint Dewpoint Depression Visibility Wind Speed Wind Dir Waves Ship Positions

Kenneth Carl

Owner: So. Cal. Ship Services, Inc., San Pedro, CA. More information available from US FCC via Universal Licensing System and Coast Guard Vessel Documentation Center.

Last reported at 2017-Mar-28 13:10 UTC. Time now 2017-Mar-28 13:51 UTC.
Position N 33°44' W 118°16'.

Length 31 m; draft 3 m.

Type: Ship. MMSI: 367492920.

Date/timePositionNaut miles runAvg speedWind from/ knotsBaromVisibWave heightAir tempDewpointWater temp
2017-Mar-28 13:10N 33°44' W 118°16'0 0.0
2017-Mar-28 12:22N 33°44' W 118°16'0 0.0
2017-Mar-28 11:28N 33°44' W 118°16'0 0.0
2017-Mar-28 09:22N 33°44' W 118°16'0 0.0
2017-Mar-28 08:28N 33°44' W 118°16'0 0.0
2017-Mar-28 07:22N 33°44' W 118°16'0 0.0
2017-Mar-28 06:04N 33°44' W 118°16'0 0.0
2017-Mar-28 05:28N 33°44' W 118°16'0 0.0
2017-Mar-28 04:28N 33°44' W 118°16'0 0.0
2017-Mar-28 03:31N 33°44' W 118°16'0 0.0
2017-Mar-28 02:31N 33°44' W 118°16'0 0.0
2017-Mar-28 01:31N 33°44' W 118°16'0 0.0
2017-Mar-28 00:22N 33°44' W 118°16'0 0.0
2017-Mar-27 23:33N 33°44' W 118°16'7 6.7
2017-Mar-27 22:32N 33°39' W 118°11'5 4.9
2017-Mar-27 21:33N 33°35' W 118°08'0 0.0
2017-Mar-27 20:33N 33°35' W 118°08'0 0.0
2017-Mar-27 19:32N 33°35' W 118°08'0 0.0
2017-Mar-27 18:33N 33°35' W 118°08'0 0.1
2017-Mar-27 17:33N 33°35' W 118°08'  
2017-Mar-25 02:23N 33°44' W 118°16'0 0.0
2017-Mar-25 01:32N 33°44' W 118°16'0 0.0
2017-Mar-25 00:29N 33°44' W 118°16'0 0.0
2017-Mar-24 23:33N 33°44' W 118°16'9 9.5
2017-Mar-24 22:34N 33°37' W 118°09'2 2.2
2017-Mar-24 21:33N 33°35' W 118°08'0 0.0
2017-Mar-24 20:34N 33°35' W 118°08'0 0.0
2017-Mar-24 19:33N 33°35' W 118°08'1 1.1
2017-Mar-24 18:33N 33°34' W 118°07'0 0.2
2017-Mar-24 17:33N 33°34' W 118°07'0 0.0
2017-Mar-24 16:33N 33°34' W 118°07'3 3.2
2017-Mar-24 15:33N 33°36' W 118°10'10 3.2
2017-Mar-24 12:33N 33°44' W 118°16'0 0.0
2017-Mar-24 10:23N 33°44' W 118°16'0 0.0
2017-Mar-24 00:23N 33°44' W 118°16'0 0.0
2017-Mar-23 21:29N 33°44' W 118°16'0 0.0
2017-Mar-23 20:23N 33°44' W 118°16'4 0.2
2017-Mar-22 22:23N 33°41' W 118°14'8 9.2
2017-Mar-22 21:33N 33°35' W 118°08'0 0.1
2017-Mar-22 20:33N 33°35' W 118°08'1 1.3
2017-Mar-22 19:33N 33°34' W 118°07'5 1.9
2017-Mar-22 17:11N 33°37' W 118°10'8 0.4
2017-Mar-21 22:18N 33°44' W 118°16'0 0.0
2017-Mar-21 21:30N 33°44' W 118°16'0 0.0
2017-Mar-21 20:18N 33°44' W 118°16'0 0.0
2017-Mar-21 19:24N 33°44' W 118°16'0 0.0
2017-Mar-21 11:18N 33°44' W 118°16'7 0.6
2017-Mar-20 23:13N 33°38' W 118°10'4 6.0
2017-Mar-20 22:31N 33°35' W 118°08'0 0.0
2017-Mar-20 21:33N 33°35' W 118°08'0 0.0
2017-Mar-20 20:29N 33°35' W 118°08'0 0.0
2017-Mar-20 19:33N 33°35' W 118°08'1 1.2
2017-Mar-20 18:29N 33°34' W 118°07'13 2.2
2017-Mar-20 12:30N 33°44' W 118°16'0 0.0
2017-Mar-20 08:28N 33°44' W 118°16'0 0.0
2017-Mar-20 06:32N 33°44' W 118°16'0 0.0
2017-Mar-20 05:31N 33°44' W 118°16'0 0.0
2017-Mar-20 04:28N 33°44' W 118°16'0 0.0
2017-Mar-20 03:33N 33°44' W 118°16'0 0.0
2017-Mar-20 02:28N 33°44' W 118°16'0 0.0
2017-Mar-20 01:32N 33°44' W 118°16'0 0.0
2017-Mar-20 00:33N 33°44' W 118°16'0 0.0
2017-Mar-19 23:33N 33°44' W 118°16'0 0.0
2017-Mar-19 22:33N 33°44' W 118°16'0 0.0
2017-Mar-19 21:33N 33°44' W 118°16'0 0.0
2017-Mar-19 20:33N 33°44' W 118°16'0 0.0
2017-Mar-19 19:33N 33°44' W 118°16'0 0.0
2017-Mar-19 18:33N 33°44' W 118°16'0 0.0
2017-Mar-19 17:25N 33°44' W 118°16'0 0.0
2017-Mar-19 16:32N 33°44' W 118°16'0 0.0
2017-Mar-19 15:29N 33°44' W 118°16'0 0.0
2017-Mar-19 14:29N 33°44' W 118°16'0 0.0
2017-Mar-19 13:33N 33°44' W 118°16'0 0.0
2017-Mar-19 12:32N 33°44' W 118°16'0 0.0
2017-Mar-19 11:33N 33°44' W 118°16'0 0.0
2017-Mar-19 10:29N 33°44' W 118°16'0 0.0
2017-Mar-19 09:33N 33°44' W 118°16'0 0.0
2017-Mar-19 08:28N 33°44' W 118°16'0 0.0
2017-Mar-19 07:23N 33°44' W 118°16'0 0.0
2017-Mar-19 06:26N 33°44' W 118°16'0 0.0
2017-Mar-19 04:33N 33°44' W 118°16'0 0.0
2017-Mar-19 03:33N 33°44' W 118°16'0 0.0
2017-Mar-19 02:27N 33°44' W 118°16'0 0.0
2017-Mar-19 01:33N 33°44' W 118°16'0 0.0
2017-Mar-19 00:33N 33°44' W 118°16'0 0.0
2017-Mar-18 23:33N 33°44' W 118°16'0 0.0
2017-Mar-18 22:33N 33°44' W 118°16'0 0.0
2017-Mar-18 21:32N 33°44' W 118°16'0 0.0
2017-Mar-18 20:28N 33°44' W 118°16'0 0.0
2017-Mar-18 19:33N 33°44' W 118°16'0 0.0
2017-Mar-18 18:26N 33°44' W 118°16'0 0.0
2017-Mar-18 17:33N 33°44' W 118°16'0 0.0
2017-Mar-18 16:30N 33°44' W 118°16'0 0.0
2017-Mar-18 15:26N 33°44' W 118°16'0 0.0
2017-Mar-18 14:33N 33°44' W 118°16'0 0.0
2017-Mar-18 13:31N 33°44' W 118°16'  

Dump ship's entire track history